createdAt,value
2023-03-10T00:00:01.975Z,536.88
2023-03-10T00:02:36.546Z,499.00
2023-03-10T00:05:08.191Z,760.83
2023-03-10T00:07:39.160Z,300.75
2023-03-10T00:10:12.417Z,233.52
2023-03-10T00:12:45.212Z,210.85
2023-03-10T00:15:15.951Z,126.03
2023-03-10T00:17:47.010Z,85.93
2023-03-10T00:20:21.548Z,71.65
2023-03-10T00:22:52.406Z,62.80
2023-03-10T00:25:23.286Z,60.50
2023-03-10T00:27:54.418Z,58.53
2023-03-10T00:30:26.063Z,57.40
2023-03-10T00:32:56.914Z,78.47
2023-03-10T00:35:27.701Z,165.00
2023-03-10T00:37:59.926Z,117.88
2023-03-10T00:40:31.106Z,81.00
2023-03-10T00:43:02.323Z,94.75
2023-03-10T00:45:33.400Z,131.45
2023-03-10T00:48:04.533Z,104.07
2023-03-10T00:50:36.429Z,60.78
2023-03-10T00:53:07.653Z,54.95
2023-03-10T00:55:38.935Z,55.25
2023-03-10T00:58:10.414Z,60.05
2023-03-10T01:00:41.621Z,59.03
2023-03-10T01:03:13.858Z,52.30
2023-03-10T01:05:44.915Z,53.35
2023-03-10T01:08:19.199Z,53.33
2023-03-10T01:10:51.747Z,54.72
2023-03-10T01:13:23.061Z,54.38
2023-03-10T01:15:55.928Z,60.65
2023-03-10T01:18:28.289Z,57.85
2023-03-10T01:20:59.643Z,62.03
2023-03-10T01:23:31.060Z,52.67
2023-03-10T01:26:01.935Z,52.90
2023-03-10T01:28:32.603Z,56.97
2023-03-10T01:31:03.809Z,56.92
2023-03-10T01:33:36.778Z,49.35
2023-03-10T01:36:12.672Z,49.22
2023-03-10T01:38:45.145Z,52.38
2023-03-10T01:41:18.232Z,47.95
2023-03-10T01:43:52.726Z,47.45
2023-03-10T01:46:53.854Z,46.53
2023-03-10T01:49:46.433Z,47.65
2023-03-10T01:52:22.959Z,43.88
2023-03-10T01:55:03.062Z,46.60
2023-03-10T01:57:42.067Z,42.78
2023-03-10T02:00:14.058Z,45.72
2023-03-10T02:03:13.274Z,42.95
2023-03-10T02:06:11.637Z,43.30
2023-03-10T02:08:55.387Z,45.38
2023-03-10T02:11:27.875Z,41.05
2023-03-10T02:13:59.360Z,41.15
2023-03-10T02:16:30.734Z,44.70
2023-03-10T02:19:01.882Z,42.13
2023-03-10T02:21:48.269Z,40.03
2023-03-10T02:24:36.169Z,41.20
2023-03-10T02:27:17.542Z,50.17
2023-03-10T02:30:16.115Z,45.53
2023-03-10T02:32:57.700Z,34.80
2023-03-10T02:35:29.065Z,39.60
2023-03-10T02:38:06.764Z,42.45
2023-03-10T02:40:39.533Z,44.92
2023-03-10T02:43:16.965Z,35.22
2023-03-10T02:45:50.202Z,38.72
2023-03-10T02:48:32.914Z,34.13
2023-03-10T02:51:08.420Z,38.10
2023-03-10T02:53:41.251Z,43.60
2023-03-10T02:56:12.522Z,45.33
2023-03-10T02:58:45.862Z,35.08
2023-03-10T03:01:17.437Z,35.47
2023-03-10T03:03:50.091Z,46.83
2023-03-10T03:06:21.666Z,41.05
2023-03-10T03:08:52.931Z,43.83
2023-03-10T03:13:59.076Z,37.80
2023-03-10T03:16:30.532Z,36.88
2023-03-10T03:19:05.864Z,38.20
2023-03-10T03:21:37.389Z,40.47
2023-03-10T03:24:08.731Z,37.92
2023-03-10T03:26:42.230Z,47.25
2023-03-10T03:29:20.220Z,35.13
2023-03-10T03:31:51.545Z,42.60
2023-03-10T03:34:26.647Z,38.67
2023-03-10T03:37:04.488Z,37.03
2023-03-10T03:39:40.466Z,42.08
2023-03-10T03:42:12.857Z,38.08
2023-03-10T03:44:51.958Z,43.67
2023-03-10T03:47:24.770Z,37.58
2023-03-10T03:52:40.041Z,40.00
2023-03-10T03:55:18.595Z,40.67
2023-03-10T03:57:52.402Z,39.42
2023-03-10T04:00:26.481Z,37.67
2023-03-10T04:03:05.394Z,36.78
2023-03-10T04:05:37.386Z,38.65
2023-03-10T04:08:09.058Z,41.70
2023-03-10T04:10:40.380Z,36.10
2023-03-10T04:13:11.678Z,44.42
2023-03-10T04:15:42.949Z,40.58
2023-03-10T04:18:14.374Z,35.58
2023-03-10T04:20:46.547Z,40.40
2023-03-10T04:23:17.789Z,45.25
2023-03-10T04:25:49.166Z,38.75
2023-03-10T04:28:22.158Z,43.67
2023-03-10T04:30:56.780Z,40.33
2023-03-10T04:33:31.475Z,36.63
2023-03-10T04:36:19.265Z,36.17
2023-03-10T04:38:53.893Z,37.72
2023-03-10T04:41:30.849Z,36.60
2023-03-10T04:46:34.516Z,36.40
2023-03-10T04:49:07.122Z,36.03
2023-03-10T04:51:38.554Z,38.85
2023-03-10T04:54:09.907Z,35.85
2023-03-10T04:56:42.286Z,35.90
2023-03-10T04:59:13.709Z,40.17
2023-03-10T05:01:45.521Z,36.40
2023-03-10T05:04:16.555Z,36.83
2023-03-10T05:06:51.376Z,34.60
2023-03-10T05:09:30.637Z,38.92
2023-03-10T05:12:02.000Z,36.95
2023-03-10T05:17:07.279Z,34.35
2023-03-10T05:19:38.460Z,39.83
2023-03-10T05:22:13.240Z,36.88
2023-03-10T05:27:16.776Z,37.75
2023-03-10T05:29:47.956Z,39.45
2023-03-10T05:32:24.154Z,38.10
2023-03-10T05:34:56.193Z,32.72
2023-03-10T05:37:28.033Z,40.95
2023-03-10T05:40:00.866Z,36.97
2023-03-10T05:42:33.151Z,41.90
2023-03-10T05:45:06.547Z,36.30
2023-03-10T05:47:38.350Z,39.28
2023-03-10T05:50:12.007Z,37.42
2023-03-10T05:53:24.154Z,37.03
2023-03-10T05:55:56.452Z,39.78
2023-03-10T05:58:28.556Z,42.80
2023-03-10T06:01:00.103Z,45.47
2023-03-10T06:03:31.841Z,38.03
2023-03-10T06:06:09.776Z,39.53
2023-03-10T06:08:43.088Z,39.25
2023-03-10T06:11:15.765Z,35.08
2023-03-10T06:13:47.473Z,38.17
2023-03-10T06:16:21.522Z,36.35
2023-03-10T06:18:56.893Z,34.53
2023-03-10T06:21:29.823Z,36.90
2023-03-10T06:24:02.038Z,41.13
2023-03-10T06:26:33.504Z,35.72
2023-03-10T06:29:04.819Z,37.42
2023-03-10T06:31:36.175Z,36.10
2023-03-10T06:34:13.296Z,33.72
2023-03-10T06:36:44.661Z,36.63
2023-03-10T06:39:15.711Z,38.30
2023-03-10T06:41:46.930Z,38.95
2023-03-10T06:44:21.935Z,40.35
2023-03-10T06:46:56.132Z,40.28
2023-03-10T06:49:33.235Z,37.33
2023-03-10T06:52:04.573Z,35.45
2023-03-10T06:54:36.266Z,39.83
2023-03-10T06:57:08.067Z,37.67
2023-03-10T06:59:40.344Z,35.05
2023-03-10T07:02:14.342Z,35.38
2023-03-10T07:04:45.671Z,35.35
2023-03-10T07:07:18.299Z,120.22
2023-03-10T07:09:49.449Z,39.50
2023-03-10T07:12:23.002Z,39.53
2023-03-10T07:14:54.323Z,37.80
2023-03-10T07:17:25.332Z,36.28
2023-03-10T07:19:58.206Z,36.63
2023-03-10T07:22:29.389Z,35.97
2023-03-10T07:25:00.691Z,40.10
2023-03-10T07:27:32.309Z,43.40
2023-03-10T07:30:03.793Z,36.50
2023-03-10T07:32:35.094Z,38.40
2023-03-10T07:37:51.572Z,43.33
2023-03-10T07:40:26.369Z,42.97
2023-03-10T07:42:57.639Z,115.82
2023-03-10T07:45:32.401Z,41.67
2023-03-10T07:48:04.130Z,45.83
2023-03-10T07:50:35.024Z,74.40
2023-03-10T07:53:06.535Z,52.63
2023-03-10T07:55:39.788Z,44.75
2023-03-10T07:58:12.818Z,46.50
2023-03-10T08:01:04.439Z,45.20
2023-03-10T08:03:37.085Z,44.88
2023-03-10T08:06:11.888Z,50.22
2023-03-10T08:08:46.139Z,50.88
2023-03-10T08:11:17.510Z,50.42
2023-03-10T08:13:50.103Z,46.30
2023-03-10T08:16:32.185Z,43.85
2023-03-10T08:19:03.478Z,45.17
2023-03-10T08:21:34.969Z,40.88
2023-03-10T08:24:06.405Z,40.90
2023-03-10T08:26:37.766Z,42.65
2023-03-10T08:29:09.772Z,42.10
2023-03-10T08:31:41.228Z,43.45
2023-03-10T08:34:12.800Z,46.95
2023-03-10T08:36:44.914Z,41.88
2023-03-10T08:39:16.683Z,46.22
2023-03-10T08:41:50.866Z,42.50
2023-03-10T08:44:22.332Z,38.88
2023-03-10T08:46:55.274Z,42.05
2023-03-10T08:49:34.438Z,41.53
2023-03-10T08:52:07.552Z,43.50
2023-03-10T08:54:39.541Z,47.67
2023-03-10T08:57:11.877Z,46.17
2023-03-10T08:59:44.181Z,47.55
2023-03-10T09:02:16.988Z,45.05
2023-03-10T09:04:48.224Z,45.95
2023-03-10T09:07:19.829Z,42.58
2023-03-10T09:09:51.100Z,51.42
2023-03-10T09:12:22.569Z,43.72
2023-03-10T09:14:53.523Z,47.30
2023-03-10T09:17:24.872Z,45.50
2023-03-10T09:19:55.942Z,55.70
2023-03-10T09:22:27.404Z,47.97
2023-03-10T09:25:00.577Z,49.05
2023-03-10T09:27:31.825Z,84.72
2023-03-10T09:30:03.090Z,101.00
2023-03-10T09:32:34.348Z,96.00
2023-03-10T09:35:05.937Z,81.03
2023-03-10T09:37:37.339Z,80.95
2023-03-10T09:40:11.814Z,183.13
2023-03-10T09:42:50.473Z,88.85
2023-03-10T09:45:49.587Z,187.95
2023-03-10T09:48:38.833Z,201.40
2023-03-10T09:51:25.322Z,247.15
2023-03-10T09:54:14.933Z,635.40
2023-03-10T09:56:48.234Z,844.00
2023-03-10T09:59:41.621Z,779.97
2023-03-10T10:02:24.955Z,745.10
2023-03-10T10:05:03.298Z,646.97
2023-03-10T10:07:45.713Z,480.85
2023-03-10T10:10:20.255Z,411.92
2023-03-10T10:12:54.447Z,374.98
2023-03-10T10:15:29.863Z,574.03
2023-03-10T10:18:24.959Z,445.88
2023-03-10T10:21:08.382Z,174.95
2023-03-10T10:23:42.678Z,173.50
2023-03-10T10:26:22.699Z,197.23
2023-03-10T10:28:59.189Z,240.65
2023-03-10T10:31:36.294Z,371.45
2023-03-10T10:34:25.090Z,344.23
2023-03-10T10:37:03.964Z,318.95
2023-03-10T10:39:43.740Z,365.40
2023-03-10T10:42:26.151Z,360.35
2023-03-10T10:44:59.674Z,356.80
2023-03-10T10:47:40.145Z,359.10
2023-03-10T10:50:32.141Z,352.25
2023-03-10T10:53:16.975Z,371.70
2023-03-10T10:56:00.366Z,365.52
2023-03-10T10:58:40.588Z,331.10
2023-03-10T11:01:19.445Z,296.25
2023-03-10T11:03:51.354Z,281.65
2023-03-10T11:06:39.584Z,302.30
2023-03-10T11:09:31.190Z,254.82
2023-03-10T11:12:23.725Z,259.55
2023-03-10T11:15:03.596Z,199.70
2023-03-10T11:18:17.059Z,185.63
2023-03-10T11:20:57.773Z,188.70
2023-03-10T11:23:33.363Z,191.57
2023-03-10T11:26:20.106Z,268.33
2023-03-10T11:29:24.067Z,263.60
2023-03-10T11:32:23.457Z,248.17
2023-03-10T11:34:55.836Z,166.45
2023-03-10T11:37:33.912Z,170.10
2023-03-10T11:40:30.064Z,150.13
2023-03-10T11:43:20.591Z,150.77
2023-03-10T11:45:56.165Z,196.80
2023-03-10T11:48:45.793Z,186.00
2023-03-10T11:51:36.376Z,177.45
2023-03-10T11:54:25.681Z,166.23
2023-03-10T11:57:24.149Z,138.85
2023-03-10T12:00:09.520Z,104.95
2023-03-10T12:03:06.636Z,99.13
2023-03-10T12:05:51.652Z,92.53
2023-03-10T12:08:26.633Z,87.13
2023-03-10T12:13:54.601Z,82.27
2023-03-10T12:16:35.430Z,107.60
2023-03-10T12:19:10.384Z,93.57
2023-03-10T12:21:41.864Z,81.50
2023-03-10T12:24:48.575Z,88.05
2023-03-10T12:27:19.957Z,89.53
2023-03-10T12:29:51.521Z,109.25
2023-03-10T12:32:41.879Z,222.40
2023-03-10T12:35:36.825Z,155.38
2023-03-10T12:38:34.266Z,141.55
2023-03-10T12:41:06.359Z,143.10
2023-03-10T12:44:01.623Z,138.18
2023-03-10T12:46:49.654Z,107.45
2023-03-10T12:49:53.067Z,101.47
2023-03-10T12:52:46.728Z,95.40
2023-03-10T12:58:14.789Z,90.13
2023-03-10T13:01:10.712Z,106.15
2023-03-10T13:03:45.434Z,94.57
2023-03-10T13:06:35.361Z,90.70
2023-03-10T13:09:20.717Z,104.38
2023-03-10T13:12:02.200Z,97.80
2023-03-10T13:14:40.533Z,93.88
2023-03-10T13:17:32.110Z,92.97
2023-03-10T13:20:07.730Z,103.47
2023-03-10T13:22:39.221Z,94.18
2023-03-10T13:25:16.850Z,84.97
2023-03-10T13:27:49.226Z,84.50
2023-03-10T13:30:31.969Z,79.25
2023-03-10T13:33:06.787Z,73.18
2023-03-10T13:38:28.802Z,75.25
2023-03-10T13:41:00.154Z,79.57
2023-03-10T13:43:40.328Z,80.68
2023-03-10T13:46:27.257Z,75.85
2023-03-10T13:52:27.771Z,75.55
2023-03-10T13:55:16.651Z,72.70
2023-03-10T13:57:50.523Z,80.60
2023-03-10T14:02:58.604Z,73.88
2023-03-10T14:05:47.361Z,80.18
2023-03-10T14:08:34.048Z,80.38
2023-03-10T14:11:37.943Z,84.50
2023-03-10T14:14:12.997Z,79.13
2023-03-10T14:17:04.805Z,76.20
2023-03-10T14:19:42.111Z,72.80
2023-03-10T14:22:42.247Z,75.65
2023-03-10T14:25:15.743Z,77.90
2023-03-10T14:28:00.894Z,72.53
2023-03-10T14:30:35.094Z,74.30
2023-03-10T14:33:25.594Z,76.20
2023-03-10T14:38:42.748Z,74.18
2023-03-10T14:41:15.549Z,74.70
2023-03-10T14:43:50.341Z,78.38
2023-03-10T14:46:24.198Z,72.90
2023-03-10T14:48:55.877Z,82.70
2023-03-10T14:51:36.115Z,82.78
2023-03-10T14:54:24.813Z,83.95
2023-03-10T14:57:18.190Z,73.40
2023-03-10T14:59:54.151Z,70.75
2023-03-10T15:02:39.704Z,73.85
2023-03-10T15:05:21.626Z,72.18
2023-03-10T15:07:56.670Z,84.43
2023-03-10T15:10:39.142Z,87.30
2023-03-10T15:13:15.377Z,76.05
2023-03-10T15:15:48.999Z,75.03
2023-03-10T15:18:26.176Z,73.35
2023-03-10T15:21:25.935Z,70.60
2023-03-10T15:23:59.520Z,77.60
2023-03-10T15:26:32.222Z,78.03
2023-03-10T15:29:04.782Z,81.05
2023-03-10T15:31:37.343Z,81.82
2023-03-10T15:34:08.821Z,77.00
2023-03-10T15:36:40.275Z,81.78
2023-03-10T15:39:18.844Z,82.32
2023-03-10T15:41:57.611Z,73.65
2023-03-10T15:44:28.701Z,74.95
2023-03-10T15:49:43.842Z,79.65
2023-03-10T15:52:15.561Z,84.07
2023-03-10T15:54:47.012Z,82.13
2023-03-10T15:57:19.498Z,79.00
2023-03-10T15:59:55.158Z,77.93
2023-03-10T16:02:27.332Z,83.68
2023-03-10T16:04:59.775Z,83.93
2023-03-10T16:07:32.270Z,91.13
2023-03-10T16:10:03.827Z,86.60
2023-03-10T16:15:41.432Z,86.80
2023-03-10T16:18:34.971Z,88.72
2023-03-10T16:21:10.046Z,89.23
2023-03-10T16:23:41.792Z,81.13
2023-03-10T16:26:14.803Z,92.43
2023-03-10T16:28:48.789Z,79.60
2023-03-10T16:31:21.769Z,79.45
2023-03-10T16:33:54.125Z,76.05
2023-03-10T16:36:28.376Z,83.15
2023-03-10T16:38:59.851Z,77.18
2023-03-10T16:44:40.856Z,78.70
2023-03-10T16:49:58.183Z,83.30
2023-03-10T16:52:29.516Z,81.45
2023-03-10T16:55:21.684Z,83.03
2023-03-10T16:57:53.549Z,92.18
2023-03-10T17:00:27.999Z,80.23
2023-03-10T17:03:01.578Z,81.88
2023-03-10T17:05:33.113Z,79.43
2023-03-10T17:08:10.600Z,70.43
2023-03-10T17:10:43.870Z,76.05
2023-03-10T17:13:15.801Z,82.40
2023-03-10T17:15:57.836Z,84.15
2023-03-10T17:18:29.177Z,81.00
2023-03-10T17:21:00.344Z,85.10
2023-03-10T17:23:34.449Z,83.88
2023-03-10T17:26:05.796Z,76.97
2023-03-10T17:28:37.043Z,76.03
2023-03-10T17:31:15.160Z,73.95
2023-03-10T17:33:46.280Z,82.43
2023-03-10T17:39:10.984Z,81.45
2023-03-10T17:41:44.139Z,68.75
2023-03-10T17:44:17.083Z,69.18
2023-03-10T17:47:08.063Z,72.68
2023-03-10T17:49:39.449Z,78.90
2023-03-10T17:52:11.722Z,70.28
2023-03-10T17:54:44.878Z,69.50
2023-03-10T17:57:16.107Z,69.03
2023-03-10T17:59:47.299Z,70.03
2023-03-10T18:02:19.806Z,75.40
2023-03-10T18:04:51.032Z,76.65
2023-03-10T18:07:22.257Z,75.97
2023-03-10T18:09:53.556Z,70.60
2023-03-10T18:12:24.782Z,70.75
2023-03-10T18:14:56.031Z,70.38
2023-03-10T18:17:30.833Z,74.18
2023-03-10T18:20:02.801Z,68.55
2023-03-10T18:22:37.217Z,68.07
2023-03-10T18:25:08.760Z,65.88
2023-03-10T18:27:40.028Z,74.80
2023-03-10T18:30:12.944Z,70.20
2023-03-10T18:32:44.800Z,63.55
2023-03-10T18:35:15.880Z,66.07
2023-03-10T18:37:46.840Z,71.70
2023-03-10T18:40:19.097Z,73.75
2023-03-10T18:42:51.018Z,70.85
2023-03-10T18:45:21.795Z,71.90
2023-03-10T18:47:52.527Z,76.20
2023-03-10T18:50:23.318Z,71.93
2023-03-10T18:52:54.108Z,78.45
2023-03-10T18:55:25.178Z,77.43
2023-03-10T18:57:55.987Z,76.38
2023-03-10T19:00:27.243Z,70.95
2023-03-10T19:03:01.452Z,75.82
2023-03-10T19:05:32.240Z,73.90
2023-03-10T19:08:03.310Z,65.75
2023-03-10T19:10:35.030Z,69.78
2023-03-10T19:13:06.073Z,63.97
2023-03-10T19:15:38.496Z,68.07
2023-03-10T19:18:09.364Z,76.80
2023-03-10T19:20:41.464Z,69.97
2023-03-10T19:23:12.588Z,72.80
2023-03-10T19:25:43.423Z,66.50
2023-03-10T19:28:14.098Z,66.68
2023-03-10T19:30:45.177Z,66.88
2023-03-10T19:33:15.900Z,70.18
2023-03-10T19:35:47.348Z,76.20
2023-03-10T19:38:23.042Z,71.25
2023-03-10T19:40:54.117Z,69.40
2023-03-10T19:43:25.189Z,68.63
2023-03-10T19:46:06.852Z,76.50
2023-03-10T19:48:38.495Z,66.30
2023-03-10T19:51:10.502Z,73.13
2023-03-10T19:53:41.767Z,69.22
2023-03-10T19:56:12.552Z,68.22
2023-03-10T19:58:43.473Z,72.65
2023-03-10T20:01:25.829Z,74.20
2023-03-10T20:04:02.196Z,72.82
2023-03-10T20:06:33.338Z,69.72
2023-03-10T20:09:05.367Z,77.32
2023-03-10T20:11:36.814Z,73.50
2023-03-10T20:14:08.235Z,66.30
2023-03-10T20:16:39.240Z,69.85
2023-03-10T20:19:10.083Z,69.57
2023-03-10T20:21:42.868Z,66.05
2023-03-10T20:24:13.898Z,61.83
2023-03-10T20:26:45.626Z,60.88
2023-03-10T20:29:16.906Z,67.22
2023-03-10T20:31:48.038Z,70.68
2023-03-10T20:34:23.553Z,73.65
2023-03-10T20:36:54.555Z,75.10
2023-03-10T20:39:26.166Z,68.68
2023-03-10T20:41:57.220Z,71.50
2023-03-10T20:44:28.476Z,69.50
2023-03-10T20:46:59.217Z,70.63
2023-03-10T20:49:30.356Z,66.10
2023-03-10T20:52:01.436Z,67.45
2023-03-10T20:54:32.526Z,70.68
2023-03-10T20:57:03.562Z,64.88
2023-03-10T20:59:34.273Z,66.50
2023-03-10T21:02:06.847Z,68.93
2023-03-10T21:04:37.809Z,65.43
2023-03-10T21:07:08.827Z,69.65
2023-03-10T21:09:39.942Z,65.07
2023-03-10T21:12:11.706Z,77.35
2023-03-10T21:14:42.682Z,81.25
2023-03-10T21:17:15.636Z,72.15
2023-03-10T21:19:46.338Z,63.35
2023-03-10T21:22:16.990Z,65.20
2023-03-10T21:24:47.933Z,66.03
2023-03-10T21:27:19.047Z,77.75
2023-03-10T21:29:50.203Z,85.28
2023-03-10T21:32:22.662Z,73.68
2023-03-10T21:34:54.798Z,72.38
2023-03-10T21:37:25.950Z,68.25
2023-03-10T21:39:56.758Z,66.15
2023-03-10T21:42:28.112Z,63.55
2023-03-10T21:44:59.147Z,59.17
2023-03-10T21:47:30.213Z,71.88
2023-03-10T21:50:01.238Z,66.95
2023-03-10T21:52:32.229Z,65.75
2023-03-10T21:55:02.972Z,64.43
2023-03-10T21:57:39.205Z,62.25
2023-03-10T22:00:11.114Z,70.00
2023-03-10T22:02:42.500Z,67.78
2023-03-10T22:05:20.701Z,63.75
2023-03-10T22:07:54.067Z,71.95
2023-03-10T22:10:25.038Z,67.22
2023-03-10T22:12:56.177Z,61.97
2023-03-10T22:15:29.035Z,69.25
2023-03-10T22:18:01.039Z,69.03
2023-03-10T22:20:31.882Z,69.53
2023-03-10T22:23:02.908Z,70.00
2023-03-10T22:25:36.257Z,68.47
2023-03-10T22:28:07.667Z,71.70
2023-03-10T22:30:40.235Z,67.55
2023-03-10T22:33:11.762Z,70.95
2023-03-10T22:35:42.877Z,66.07
2023-03-10T22:38:15.168Z,66.22
2023-03-10T22:40:46.186Z,65.25
2023-03-10T22:43:18.593Z,65.78
2023-03-10T22:45:49.572Z,67.75
2023-03-10T22:48:24.001Z,61.88
2023-03-10T22:50:55.090Z,69.45
2023-03-10T22:53:26.210Z,69.88
2023-03-10T22:55:59.546Z,61.97
2023-03-10T22:58:30.841Z,64.82
2023-03-10T23:01:21.452Z,70.28
2023-03-10T23:03:52.150Z,67.68
2023-03-10T23:06:24.188Z,60.92
2023-03-10T23:08:55.226Z,61.72
2023-03-10T23:11:29.497Z,60.63
2023-03-10T23:14:04.757Z,67.35
2023-03-10T23:16:38.052Z,83.32
2023-03-10T23:19:10.380Z,66.47
2023-03-10T23:21:41.205Z,62.10
2023-03-10T23:24:12.570Z,69.38
2023-03-10T23:26:43.652Z,66.30
2023-03-10T23:29:14.986Z,63.17
2023-03-10T23:31:45.857Z,64.03
2023-03-10T23:34:16.948Z,63.90
2023-03-10T23:36:50.803Z,66.90
2023-03-10T23:39:34.529Z,66.05
2023-03-10T23:42:05.444Z,64.93
2023-03-10T23:44:36.425Z,62.38
2023-03-10T23:47:07.354Z,62.20
2023-03-10T23:49:38.218Z,67.07
2023-03-10T23:52:08.975Z,65.40
2023-03-10T23:54:39.997Z,66.88
2023-03-10T23:57:10.822Z,61.30
2023-03-10T23:59:42.841Z,68.15
